Time;durP1;ratioP1;P1;durP2;ratioP2;P2;SDS_P1;SDS_P2;PMS_P1;PMS_P2;Temp;Humidity;BMP_temperature;BMP_pressure;BME280_temperature;BME280_humidity;BME280_pressure;Samples;Min_cycle;Max_cycle;Signal;HPM_P1;HPM_P2
2022/10/28 00:01:27;;;;;;;69.43;65.43;;;;;;;15.93;73.55;102479.75;5001982;28;102280;-53
2022/10/28 00:03:55;;;;;;;70.68;66.55;;;;;;;15.93;73.49;102485.22;5001650;28;102789;-54
2022/10/28 00:06:24;;;;;;;72.07;67.95;;;;;;;15.93;73.61;102489.91;5014527;28;103935;-53
2022/10/28 00:08:52;;;;;;;75.93;71.53;;;;;;;15.93;73.38;102493.47;5015597;28;102552;-53
2022/10/28 00:11:22;;;;;;;73.30;69.03;;;;;;;15.94;73.77;102497.03;5014709;28;102512;-53
2022/10/28 00:13:53;;;;;;;75.45;71.05;;;;;;;15.94;73.93;102492.41;5000780;28;102462;-53
2022/10/28 00:16:22;;;;;;;65.85;62.00;;;;;;;15.94;73.60;102486.06;4997161;28;104128;-53
2022/10/28 00:18:51;;;;;;;78.63;74.13;;;;;;;15.94;73.33;102481.41;4997908;28;102006;-53
2022/10/28 00:21:21;;;;;;;67.68;63.72;;;;;;;15.93;73.74;102473.44;5011021;28;102184;-53
2022/10/28 00:23:51;;;;;;;76.20;71.88;;;;;;;15.93;73.36;102485.22;5008398;28;102058;-53
2022/10/28 00:26:21;;;;;;;69.47;65.30;;;;;;;15.93;73.42;102479.75;5013567;28;104160;-53
2022/10/28 00:28:50;;;;;;;75.38;71.05;;;;;;;15.92;73.58;102475.34;5004095;28;101963;-53
2022/10/28 00:31:19;;;;;;;71.80;67.63;;;;;;;15.93;73.66;102478.91;5014901;28;101954;-53
2022/10/28 00:33:46;;;;;;;70.40;66.35;;;;;;;15.92;73.42;102478.09;5015479;28;102144;-53
2022/10/28 00:36:16;;;;;;;70.55;66.60;;;;;;;15.92;73.51;102483.59;5014846;28;103882;-53
2022/10/28 00:38:45;;;;;;;71.60;67.63;;;;;;;15.91;73.41;102470.97;5014690;28;102236;-53
2022/10/28 00:41:14;;;;;;;71.77;67.70;;;;;;;15.92;73.74;102472.59;5014501;28;102204;-54
2022/10/28 00:43:44;;;;;;;70.82;66.72;;;;;;;15.92;73.80;102483.59;5015113;28;102186;-53
2022/10/28 00:46:18;;;;;;;73.15;69.03;;;;;;;15.92;73.65;102488.25;5012213;28;104180;-53
2022/10/28 00:48:48;;;;;;;71.30;67.32;;;;;;;15.92;73.28;102482.75;5014469;28;102059;-54
2022/10/28 00:51:16;;;;;;;67.65;63.78;;;;;;;15.92;73.74;102477.28;5014726;28;102516;-53
2022/10/28 00:53:44;;;;;;;72.18;68.03;;;;;;;15.91;73.88;102472.88;5014503;28;102353;-53
2022/10/28 00:56:16;;;;;;;70.00;66.05;;;;;;;15.91;73.64;102481.94;5013654;28;104121;-53
2022/10/28 00:58:47;;;;;;;65.23;61.40;;;;;;;15.91;73.70;102470.97;5004513;28;102210;-53
2022/10/28 01:01:14;;;;;;;79.20;74.78;;;;;;;15.91;73.35;102476.44;5011625;28;102317;-53
2022/10/28 01:03:40;;;;;;;81.43;76.85;;;;;;;15.91;73.68;102465.47;5015073;28;102169;-53
2022/10/28 01:06:07;;;;;;;68.82;65.05;;;;;;;15.90;73.82;102463.78;5001423;28;103873;-53
2022/10/28 01:08:34;;;;;;;71.28;67.25;;;;;;;15.91;73.53;102468.22;5014613;28;102456;-53
2022/10/28 01:11:35;;;;;;;72.47;68.38;;;;;;;15.90;73.75;102458.31;5014166;28;102280;-53
2022/10/28 01:14:17;;;;;;;68.45;64.53;;;;;;;15.89;73.60;102464.91;5015619;27;102406;-53
2022/10/28 01:17:00;;;;;;;72.50;68.45;;;;;;;15.90;73.70;102458.31;5029549;27;104198;-53
2022/10/28 01:19:59;;;;;;;76.35;72.07;;;;;;;15.90;73.21;102463.78;5030304;27;102517;-53
2022/10/28 01:22:32;;;;;;;65.05;61.38;;;;;;;15.90;73.54;102458.31;5006920;28;102137;-53
2022/10/28 01:25:27;;;;;;;74.47;70.30;;;;;;;15.90;73.58;102458.31;5002090;28;102442;-53
2022/10/28 01:28:33;;;;;;;69.93;65.97;;;;;;;15.90;73.59;102457.47;5019336;28;103983;-53
2022/10/28 01:31:14;;;;;;;70.78;66.85;;;;;;;15.90;73.34;102462.97;4982615;28;102309;-53
2022/10/28 01:33:50;;;;;;;68.13;64.30;;;;;;;15.90;73.74;102458.31;4998909;28;102455;-53
2022/10/28 01:36:24;;;;;;;66.03;62.35;;;;;;;15.90;73.87;102457.47;5010750;28;102289;-53
2022/10/28 01:39:00;;;;;;;69.93;65.85;;;;;;;15.89;73.95;102462.16;5001406;28;104219;-53
2022/10/28 01:41:32;;;;;;;69.65;65.72;;;;;;;15.88;73.54;102460.50;5004593;28;102375;-53
2022/10/28 01:44:06;;;;;;;66.82;63.03;;;;;;;15.90;73.47;102468.47;5008630;28;102257;-53
2022/10/28 01:46:39;;;;;;;66.40;62.47;;;;;;;15.89;73.49;102473.13;5005508;28;102495;-53
2022/10/28 01:49:15;;;;;;;68.10;64.25;;;;;;;15.89;73.82;102462.16;5005275;28;104001;-53
2022/10/28 01:51:46;;;;;;;70.82;66.85;;;;;;;15.89;73.38;102462.16;5003159;28;102096;-53
2022/10/28 01:54:17;;;;;;;67.45;63.78;;;;;;;15.89;73.64;102466.81;4996601;28;102603;-53
2022/10/28 01:56:47;;;;;;;66.93;63.13;;;;;;;15.89;73.75;102461.31;5011901;28;105172;-53
2022/10/28 01:59:18;;;;;;;69.30;65.40;;;;;;;15.88;73.78;102457.75;5013413;28;103923;-53
2022/10/28 02:01:46;;;;;;;64.32;60.65;;;;;;;15.89;73.54;102456.66;5009824;28;103674;-53
2022/10/28 02:04:13;;;;;;;69.70;65.77;;;;;;;15.89;73.55;102456.66;5011567;28;102174;-53
2022/10/28 02:06:43;;;;;;;64.30;60.67;;;;;;;15.88;73.50;102449.53;5013776;28;102168;-54
2022/10/28 02:09:19;;;;;;;65.10;61.45;;;;;;;15.89;73.80;102448.41;4994193;28;103869;-53
2022/10/28 02:12:19;;;;;;;67.55;63.72;;;;;;;15.87;73.35;102453.38;5004759;28;102275;-54
2022/10/28 02:14:59;;;;;;;71.15;67.15;;;;;;;15.90;73.35;102457.47;5015714;28;102184;-53
2022/10/28 02:17:41;;;;;;;66.43;62.63;;;;;;;15.88;73.53;102454.19;5017316;28;102421;-53
2022/10/28 02:20:17;;;;;;;68.22;64.40;;;;;;;15.87;73.81;102456.13;5011374;28;104008;-53
2022/10/28 02:22:49;;;;;;;73.88;69.80;;;;;;;15.88;73.30;102460.50;5008192;28;102086;-53
2022/10/28 02:25:20;;;;;;;65.13;61.50;;;;;;;15.87;73.70;102464.34;5024698;28;102587;-53
2022/10/28 02:27:55;;;;;;;74.10;70.00;;;;;;;15.88;73.79;102460.50;5025559;28;102516;-53
2022/10/28 02:30:24;;;;;;;70.90;67.00;;;;;;;15.87;73.24;102467.09;5022161;27;103848;-53
2022/10/28 02:32:56;;;;;;;76.18;72.03;;;;;;;15.86;73.33;102462.66;5019012;28;102247;-53
2022/10/28 02:35:30;;;;;;;69.78;65.93;;;;;;;15.85;73.76;102456.34;5017781;28;102386;-53
2022/10/28 02:37:59;;;;;;;67.90;64.05;;;;;;;15.87;73.74;102453.38;5022217;27;103007;-53
2022/10/28 02:40:28;;;;;;;71.18;67.30;;;;;;;15.85;73.55;102452.78;5034369;28;104059;-53
2022/10/28 02:42:59;;;;;;;65.75;61.95;;;;;;;15.84;73.63;102448.41;5024093;27;102321;-53
2022/10/28 02:45:30;;;;;;;72.72;68.65;;;;;;;15.86;73.88;102454.44;5032906;28;102648;-53
2022/10/28 02:48:03;;;;;;;68.55;64.75;;;;;;;15.85;73.25;102464.59;5026287;28;102322;-53
2022/10/28 02:50:35;;;;;;;71.18;67.15;;;;;;;15.86;73.47;102451.69;4997116;28;104115;-53
2022/10/28 02:53:09;;;;;;;65.95;62.38;;;;;;;15.85;73.46;102455.53;5016420;28;102514;-54
2022/10/28 02:55:41;;;;;;;67.30;63.50;;;;;;;15.85;73.63;102461.03;5016287;28;102531;-53
2022/10/28 02:58:09;;;;;;;71.65;67.60;;;;;;;15.86;73.56;102462.66;5017115;28;102204;-53
2022/10/28 03:00:36;;;;;;;65.18;61.53;;;;;;;15.85;73.30;102455.53;5016054;28;103875;-53
2022/10/28 03:03:04;;;;;;;71.97;68.13;;;;;;;15.85;73.39;102463.78;5015240;28;102387;-53
2022/10/28 03:05:30;;;;;;;69.22;65.30;;;;;;;15.84;73.63;102459.38;5002666;28;102293;-53
2022/10/28 03:07:57;;;;;;;68.40;64.60;;;;;;;15.84;73.61;102459.38;5007145;28;102304;-53
2022/10/28 03:10:23;;;;;;;69.32;65.53;;;;;;;15.84;73.40;102462.13;5015865;28;103832;-53
2022/10/28 03:12:50;;;;;;;68.15;64.38;;;;;;;15.84;73.94;102459.38;5016668;28;101966;-53
2022/10/28 03:15:18;;;;;;;72.30;68.32;;;;;;;15.84;73.73;102459.38;5010026;28;102051;-53
2022/10/28 03:17:45;;;;;;;72.72;68.72;;;;;;;15.85;73.79;102461.03;4999615;28;102187;-53
2022/10/28 03:20:13;;;;;;;67.93;64.13;;;;;;;15.84;73.46;102459.38;5003317;28;104162;-53
2022/10/28 03:22:42;;;;;;;70.03;66.05;;;;;;;15.84;73.79;102459.38;5006733;28;102800;-53
2022/10/28 03:25:09;;;;;;;67.85;64.07;;;;;;;15.84;73.24;102462.13;5015993;28;102446;-53
2022/10/28 03:27:39;;;;;;;71.65;67.80;;;;;;;15.84;73.13;102462.13;5017177;28;102306;-53
2022/10/28 03:30:06;;;;;;;62.30;58.78;;;;;;;15.83;73.22;102454.97;5023814;28;103917;-53
2022/10/28 03:32:33;;;;;;;71.72;67.85;;;;;;;15.83;73.78;102461.31;5031139;27;103576;-53
2022/10/28 03:35:01;;;;;;;68.30;64.47;;;;;;;15.83;73.37;102463.19;5035250;27;101955;-53
2022/10/28 03:37:30;;;;;;;68.65;64.85;;;;;;;15.82;73.60;102472.53;5032602;27;102432;-53
2022/10/28 03:39:56;;;;;;;64.75;61.13;;;;;;;15.83;73.41;102463.19;5034905;27;103961;-53
2022/10/28 03:42:22;;;;;;;69.53;65.63;;;;;;;15.84;73.53;102464.88;5032962;27;102499;-53
2022/10/28 03:44:49;;;;;;;71.80;67.88;;;;;;;15.84;73.61;102464.88;5033804;27;103154;-53
2022/10/28 03:47:16;;;;;;;74.88;70.80;;;;;;;15.83;73.40;102463.19;5031023;27;102732;-53
2022/10/28 03:49:43;;;;;;;69.13;65.43;;;;;;;15.84;73.81;102459.38;5018133;27;104023;-53
2022/10/28 03:52:09;;;;;;;71.25;67.18;;;;;;;15.84;73.56;102456.63;5024828;27;102242;-53
2022/10/28 03:54:37;;;;;;;66.68;62.97;;;;;;;15.84;73.81;102462.13;5029883;27;102550;-53
2022/10/28 03:57:04;;;;;;;71.15;67.25;;;;;;;15.83;73.50;102468.69;5034869;27;101966;-53
2022/10/28 03:59:31;;;;;;;70.80;66.90;;;;;;;15.83;73.49;102474.19;5015932;28;103985;-53
2022/10/28 04:01:57;;;;;;;69.05;65.25;;;;;;;15.82;73.89;102473.34;5027712;28;102925;-53
2022/10/28 04:04:24;;;;;;;70.55;66.72;;;;;;;15.83;73.35;102469.53;5023280;27;102303;-53
2022/10/28 04:06:50;;;;;;;71.85;68.00;;;;;;;15.83;74.02;102468.69;5031474;27;102388;-53
2022/10/28 04:09:17;;;;;;;75.53;71.30;;;;;;;15.83;73.61;102474.19;5034716;27;104086;-53
2022/10/28 04:11:47;;;;;;;71.82;67.90;;;;;;;15.83;73.60;102468.69;5022245;27;102581;-53
2022/10/28 04:14:14;;;;;;;69.85;66.05;;;;;;;15.83;74.10;102463.19;5031640;27;102410;-53
2022/10/28 04:16:40;;;;;;;67.45;63.80;;;;;;;15.83;73.81;102471.44;5021975;27;102600;-53
2022/10/28 04:19:10;;;;;;;64.53;60.88;;;;;;;15.83;73.92;102468.69;5016522;28;103948;-53
2022/10/28 04:21:37;;;;;;;73.20;69.13;;;;;;;15.82;73.63;102472.53;5028818;27;102299;-53
2022/10/28 04:24:04;;;;;;;73.07;69.05;;;;;;;15.84;73.56;102470.38;5027306;28;102033;-53
2022/10/28 04:26:31;;;;;;;65.95;62.33;;;;;;;15.81;73.66;102471.72;5031958;28;102537;-53
2022/10/28 04:29:00;;;;;;;71.13;67.28;;;;;;;15.82;74.15;102461.56;5027186;27;104206;-53
2022/10/28 04:31:26;;;;;;;67.65;63.92;;;;;;;15.81;73.99;102466.22;5023247;28;102299;-53
2022/10/28 04:33:54;;;;;;;77.97;73.73;;;;;;;15.83;73.69;102463.19;5033842;27;102516;-53
2022/10/28 04:36:21;;;;;;;70.80;66.95;;;;;;;15.81;73.88;102477.19;5020546;27;102204;-53
2022/10/28 04:38:48;;;;;;;69.25;65.53;;;;;;;15.81;73.69;102474.44;5025031;28;103845;-53
2022/10/28 04:41:15;;;;;;;67.43;63.80;;;;;;;15.81;73.66;102477.19;5035560;27;102279;-53
2022/10/28 04:43:42;;;;;;;65.70;62.08;;;;;;;15.80;74.00;102481.03;5031491;27;101972;-53
2022/10/28 04:46:09;;;;;;;68.78;64.97;;;;;;;15.81;73.71;102482.69;5024453;28;102323;-53
2022/10/28 04:48:36;;;;;;;73.20;69.20;;;;;;;15.81;73.70;102477.19;4998147;28;103788;-53
2022/10/28 04:51:03;;;;;;;71.07;67.28;;;;;;;15.81;73.55;102484.63;5013895;28;102218;-53
2022/10/28 04:53:30;;;;;;;68.38;64.68;;;;;;;15.81;73.61;102482.69;5015118;28;102351;-53
2022/10/28 04:56:00;;;;;;;66.30;62.75;;;;;;;15.82;73.87;102494.50;5001828;27;102687;-54
2022/10/28 04:58:28;;;;;;;69.90;66.10;;;;;;;15.81;73.67;102492.84;4994693;28;104102;-54
2022/10/28 05:00:56;;;;;;;64.53;60.92;;;;;;;15.83;73.79;102496.13;5012759;28;102086;-56
2022/10/28 05:03:25;;;;;;;71.13;67.35;;;;;;;15.83;73.58;102502.47;5013239;28;102191;-54
2022/10/28 05:05:52;;;;;;;70.38;66.53;;;;;;;15.84;73.09;102508.81;5017252;28;102250;-53
2022/10/28 05:08:19;;;;;;;68.43;64.78;;;;;;;15.82;74.07;102494.50;5020313;27;104031;-54
2022/10/28 05:10:48;;;;;;;72.25;68.32;;;;;;;15.84;74.12;102506.06;5026552;28;102374;-54
2022/10/28 05:13:15;;;;;;;68.40;64.63;;;;;;;15.85;74.48;102510.44;5034184;27;102272;-54
2022/10/28 05:15:46;;;;;;;76.55;72.47;;;;;;;15.85;75.22;102518.69;5032489;27;103018;-54
2022/10/28 05:18:13;;;;;;;77.07;72.80;;;;;;;15.84;74.67;102517.03;5023590;28;103711;-53
2022/10/28 05:20:42;;;;;;;71.22;67.45;;;;;;;15.83;74.80;102518.97;5025274;27;102335;-53
2022/10/28 05:23:10;;;;;;;71.13;67.38;;;;;;;15.84;73.90;102530.75;5018671;28;103478;-53
2022/10/28 05:25:36;;;;;;;74.35;70.15;;;;;;;15.83;74.10;102524.44;5031153;27;102633;-53
2022/10/28 05:28:03;;;;;;;70.47;66.55;;;;;;;15.83;73.77;102515.34;5027613;27;103930;-53
2022/10/28 05:30:30;;;;;;;72.10;68.10;;;;;;;15.83;73.91;102526.34;5034787;27;102288;-53
2022/10/28 05:33:00;;;;;;;66.13;62.47;;;;;;;15.83;73.45;102523.59;5022107;27;102973;-53
2022/10/28 05:35:27;;;;;;;70.95;66.97;;;;;;;15.83;73.64;102518.09;5034534;27;102153;-53
2022/10/28 05:37:55;;;;;;;69.43;65.68;;;;;;;15.82;73.99;102516.47;5032754;27;103957;-53
2022/10/28 05:40:22;;;;;;;65.35;61.58;;;;;;;15.82;73.27;102524.69;5021062;27;102617;-53
2022/10/28 05:42:49;;;;;;;68.90;65.13;;;;;;;15.82;73.76;102527.44;5031453;27;102420;-54
2022/10/28 05:45:18;;;;;;;71.72;67.82;;;;;;;15.82;73.76;102527.44;5026533;27;102358;-53
2022/10/28 05:47:46;;;;;;;64.93;61.38;;;;;;;15.83;73.31;102523.59;5028634;27;103294;-53
2022/10/28 05:50:14;;;;;;;68.57;64.82;;;;;;;15.84;73.44;102525.28;5032608;27;102254;-53
2022/10/28 05:52:45;;;;;;;65.50;61.83;;;;;;;15.82;73.61;102533.75;5018600;27;102120;-53
2022/10/28 05:55:13;;;;;;;67.13;63.47;;;;;;;15.83;73.68;102523.59;5032322;27;102281;-53
2022/10/28 05:57:40;;;;;;;67.50;63.80;;;;;;;15.82;73.73;102533.75;5030736;27;103841;-53
2022/10/28 06:00:07;;;;;;;63.22;59.78;;;;;;;15.83;73.47;102535.44;5034869;27;102066;-53
2022/10/28 06:02:34;;;;;;;67.28;63.50;;;;;;;15.83;73.75;102535.44;5033586;27;101998;-54
2022/10/28 06:05:00;;;;;;;70.53;66.68;;;;;;;15.83;73.60;102540.91;5034486;27;102454;-53
2022/10/28 06:07:28;;;;;;;65.50;61.83;;;;;;;15.84;73.81;102536.25;5033106;27;103853;-53
2022/10/28 06:09:54;;;;;;;68.05;64.35;;;;;;;15.83;73.37;102531.81;5024828;27;101984;-53
2022/10/28 06:12:22;;;;;;;62.50;59.10;;;;;;;15.82;73.85;102543.91;5014034;28;102223;-53
2022/10/28 06:14:51;;;;;;;68.22;64.50;;;;;;;15.82;73.22;102542.00;5002645;28;102967;-53
2022/10/28 06:17:19;;;;;;;65.82;62.25;;;;;;;15.82;73.35;102538.41;4994698;28;104009;-53
2022/10/28 06:19:45;;;;;;;65.53;61.97;;;;;;;15.82;73.67;102532.94;5005619;28;102820;-53
2022/10/28 06:22:13;;;;;;;60.35;57.15;;;;;;;15.83;73.29;102529.09;5005405;28;102545;-53
2022/10/28 06:24:40;;;;;;;67.85;64.18;;;;;;;15.82;73.39;102535.69;5006920;28;102184;-53
2022/10/28 06:27:06;;;;;;;72.18;68.13;;;;;;;15.82;73.83;102532.94;5011144;28;103933;-53
2022/10/28 06:29:37;;;;;;;67.28;63.63;;;;;;;15.82;73.69;102532.94;5009506;28;102297;-53
2022/10/28 06:32:03;;;;;;;68.05;64.35;;;;;;;15.81;73.60;102542.25;4997673;28;102483;-53
2022/10/28 06:34:31;;;;;;;67.15;63.55;;;;;;;15.81;73.70;102528.53;4999083;28;102336;-53
2022/10/28 06:36:57;;;;;;;72.32;68.32;;;;;;;15.81;73.38;102537.59;5016049;27;103958;-53
2022/10/28 06:39:24;;;;;;;74.88;70.85;;;;;;;15.82;73.73;102535.69;5019694;28;102112;-53
2022/10/28 06:41:50;;;;;;;68.28;64.50;;;;;;;15.84;73.17;102539.00;5005492;28;102267;-53
2022/10/28 06:44:17;;;;;;;69.88;65.97;;;;;;;15.83;73.56;102537.31;4996537;28;102481;-53
2022/10/28 06:46:44;;;;;;;68.07;64.28;;;;;;;15.84;73.25;102536.25;5003666;28;103923;-53
2022/10/28 06:49:11;;;;;;;61.38;57.95;;;;;;;15.83;73.49;102534.56;5012913;28;101995;-53
2022/10/28 06:51:38;;;;;;;65.90;62.28;;;;;;;15.82;73.23;102530.19;5003628;28;103069;-53
2022/10/28 06:54:04;;;;;;;63.03;59.60;;;;;;;15.82;73.44;102532.94;5007640;28;102554;-53
2022/10/28 06:56:31;;;;;;;70.45;66.65;;;;;;;15.83;73.18;102540.06;5012197;28;104102;-54
2022/10/28 06:58:58;;;;;;;73.75;69.80;;;;;;;15.83;73.54;102524.44;5003824;28;103681;-53
2022/10/28 07:01:25;;;;;;;65.80;62.22;;;;;;;15.84;73.15;102536.25;5004592;28;102108;-53
2022/10/28 07:03:52;;;;;;;65.60;62.00;;;;;;;15.86;73.44;102531.31;5005905;28;102125;-53
2022/10/28 07:06:19;;;;;;;71.88;67.95;;;;;;;15.85;73.68;102537.91;5014336;28;103913;-53
2022/10/28 07:08:48;;;;;;;69.95;66.20;;;;;;;15.86;73.34;102532.13;5014590;28;102100;-53
2022/10/28 07:11:14;;;;;;;63.50;60.03;;;;;;;15.88;73.05;102531.88;5000797;28;102518;-53
2022/10/28 07:13:41;;;;;;;67.65;64.03;;;;;;;15.89;73.19;102541.78;4995824;28;102303;-53
2022/10/28 07:16:09;;;;;;;73.47;69.50;;;;;;;15.90;73.48;102542.59;5002059;28;107937;-54
2022/10/28 07:18:36;;;;;;;70.13;66.35;;;;;;;15.89;73.25;102544.50;5015039;28;102336;-53
2022/10/28 07:21:04;;;;;;;70.72;66.85;;;;;;;15.89;73.49;102536.28;5013924;28;102525;-53
2022/10/28 07:23:32;;;;;;;73.82;69.95;;;;;;;15.91;73.16;102541.53;5030110;27;102839;-54
2022/10/28 07:25:59;;;;;;;69.50;65.78;;;;;;;15.91;73.00;102542.34;5033732;27;103897;-54
2022/10/28 07:28:27;;;;;;;66.65;62.83;;;;;;;15.92;73.44;102538.50;5029702;27;102675;-52
2022/10/28 07:30:53;;;;;;;66.95;63.33;;;;;;;15.92;73.15;102538.50;5029361;27;102542;-54
2022/10/28 07:33:20;;;;;;;69.25;65.50;;;;;;;15.93;73.18;102539.31;5021048;27;102585;-54
2022/10/28 07:35:47;;;;;;;69.93;66.10;;;;;;;15.95;73.15;102543.47;5027135;27;103928;-54
2022/10/28 07:38:15;;;;;;;68.45;64.57;;;;;;;15.94;73.57;102544.56;5032474;27;102586;-54
2022/10/28 07:40:41;;;;;;;69.13;65.38;;;;;;;15.95;73.37;102554.47;5015262;28;102481;-53
2022/10/28 07:43:10;;;;;;;;;;;;;;;15.95;73.40;102553.63;5032607;27;102143;-53
2022/10/28 07:45:37;;;;;;;65.30;61.55;;;;;;;15.95;73.19;102554.47;5033148;27;104041;-53
2022/10/28 07:48:05;;;;;;;67.32;63.78;;;;;;;15.95;73.13;102554.47;5026398;27;102583;-53
2022/10/28 07:50:31;;;;;;;69.88;66.05;;;;;;;15.96;73.12;102550.63;5008892;28;102552;-53
2022/10/28 07:52:58;;;;;;;71.63;67.78;;;;;;;15.97;73.46;102554.19;5006980;28;102468;-53
2022/10/28 07:55:27;;;;;;;59.40;56.15;;;;;;;15.96;72.89;102553.34;5004541;28;103797;-54
2022/10/28 07:57:53;;;;;;;73.82;69.93;;;;;;;15.97;73.25;102557.75;5019405;27;102740;-53
2022/10/28 08:00:20;;;;;;;73.90;69.82;;;;;;;15.99;73.33;102554.75;5034146;27;102679;-53
2022/10/28 08:02:46;;;;;;;63.90;60.47;;;;;;;15.98;73.23;102550.38;5025927;28;102268;-53
2022/10/28 08:05:14;;;;;;;79.43;75.20;;;;;;;16.00;73.02;102561.91;5018722;27;103966;-53
2022/10/28 08:07:40;;;;;;;73.35;69.38;;;;;;;16.00;73.09;102559.97;5034124;27;101866;-53
2022/10/28 08:10:07;;;;;;;68.30;64.63;;;;;;;16.03;72.91;102556.72;5030474;27;102408;-54
2022/10/28 08:12:35;;;;;;;67.25;63.60;;;;;;;16.04;73.34;102558.34;5035172;27;102008;-53
2022/10/28 08:15:02;;;;;;;69.75;66.00;;;;;;;16.06;72.84;102555.38;5033784;27;104089;-53
2022/10/28 08:17:29;;;;;;;70.32;66.35;;;;;;;16.08;72.91;102559.50;5030978;27;102584;-53
2022/10/28 08:19:56;;;;;;;64.55;61.00;;;;;;;16.07;73.18;102563.31;5015913;28;102203;-53
2022/10/28 08:22:23;;;;;;;69.50;65.78;;;;;;;16.08;73.49;102558.66;5034163;27;102566;-53
2022/10/28 08:24:51;;;;;;;69.70;66.00;;;;;;;16.08;73.11;102551.28;5033287;27;104166;-54
2022/10/28 08:27:17;;;;;;;67.97;64.32;;;;;;;16.11;73.50;102547.16;5033325;27;101969;-54
2022/10/28 08:29:46;;;;;;;70.13;66.35;;;;;;;16.13;73.43;102549.66;5027954;27;102278;-53
2022/10/28 08:32:12;;;;;;;67.70;64.00;;;;;;;16.13;73.49;102555.16;5033399;27;102550;-53
2022/10/28 08:34:39;;;;;;;68.53;64.82;;;;;;;16.12;73.11;102558.97;5032688;27;103899;-53
2022/10/28 08:37:05;;;;;;;73.68;69.75;;;;;;;16.15;73.28;102555.69;5033790;27;102661;-53
2022/10/28 08:39:32;;;;;;;66.85;63.17;;;;;;;16.15;73.00;102552.94;5019952;27;102417;-54
2022/10/28 08:42:16;;;;;;;71.65;67.90;;;;;;;16.14;73.24;102551.28;5014369;28;102101;-54
2022/10/28 08:45:07;;;;;;;71.05;67.30;;;;;;;16.14;73.58;102557.59;5024300;27;103861;-53
2022/10/28 08:47:40;;;;;;;63.00;59.42;;;;;;;16.16;72.98;102560.13;5016553;28;101912;-53
2022/10/28 08:50:12;;;;;;;70.05;66.25;;;;;;;16.17;73.19;102556.25;5013146;28;102731;-53
2022/10/28 08:52:44;;;;;;;68.97;65.35;;;;;;;16.16;73.33;102554.63;5021964;28;102567;-53
2022/10/28 08:55:15;;;;;;;67.45;63.90;;;;;;;16.16;73.08;102558.19;5012662;28;103031;-53
2022/10/28 08:57:46;;;;;;;70.05;66.25;;;;;;;16.17;73.33;102550.78;4997916;27;102040;-54
2022/10/28 09:00:24;;;;;;;69.30;65.68;;;;;;;16.18;73.39;102552.41;5029053;27;102435;-53
2022/10/28 09:03:15;;;;;;;60.95;57.70;;;;;;;16.20;73.21;102553.00;5030201;28;102365;-53
2022/10/28 09:05:46;;;;;;;67.00;63.30;;;;;;;16.21;73.17;102551.91;5009766;28;104144;-53
2022/10/28 09:08:21;;;;;;;66.20;62.53;;;;;;;16.22;72.82;102550.78;5012027;28;102065;-53
2022/10/28 09:11:05;;;;;;;73.07;69.20;;;;;;;16.22;73.46;102553.53;5011838;28;102454;-54
2022/10/28 09:13:45;;;;;;;67.75;64.15;;;;;;;16.22;72.92;102553.53;5014774;28;102655;-53
2022/10/28 09:16:24;;;;;;;68.07;64.40;;;;;;;16.21;73.30;102549.97;5015056;28;103902;-53
2022/10/28 09:18:53;;;;;;;63.22;59.85;;;;;;;16.22;72.81;102553.53;5014804;28;102333;-53
2022/10/28 09:21:29;;;;;;;65.97;62.45;;;;;;;16.22;73.08;102553.53;5014546;28;102125;-53
2022/10/28 09:23:57;;;;;;;69.32;65.70;;;;;;;16.22;72.94;102542.56;5015978;28;102402;-53
2022/10/28 09:26:36;;;;;;;64.25;60.80;;;;;;;16.22;73.13;102546.13;5014630;28;104001;-54
2022/10/28 09:29:16;;;;;;;64.00;60.53;;;;;;;16.22;72.85;102543.38;5014994;28;102537;-53
2022/10/28 09:31:46;;;;;;;65.05;61.58;;;;;;;16.22;72.76;102532.38;5005733;28;101995;-53
2022/10/28 09:34:23;;;;;;;69.63;65.82;;;;;;;16.22;72.95;102542.56;5007644;28;102129;-53
2022/10/28 09:36:54;;;;;;;69.38;65.63;;;;;;;16.21;73.03;102538.16;5030189;27;104128;-53
2022/10/28 09:39:26;;;;;;;65.45;61.97;;;;;;;16.21;72.77;102529.91;5016688;28;102265;-53
2022/10/28 09:41:54;;;;;;;62.33;59.08;;;;;;;16.21;73.05;102535.41;5014420;28;102542;-54
2022/10/28 09:44:27;;;;;;;68.18;64.57;;;;;;;16.21;72.91;102535.41;5009559;28;102360;-53
2022/10/28 09:46:59;;;;;;;67.78;64.20;;;;;;;16.21;72.47;102529.91;4998636;28;103981;-54
2022/10/28 09:49:30;;;;;;;62.25;59.00;;;;;;;16.19;72.48;102526.59;5012417;28;102106;-53
2022/10/28 09:52:07;;;;;;;67.80;64.20;;;;;;;16.19;72.71;102532.09;5011069;28;102242;-53
2022/10/28 09:54:36;;;;;;;64.70;61.17;;;;;;;16.19;72.24;102527.44;5001924;28;102336;-53
2022/10/28 09:57:05;;;;;;;62.08;58.75;;;;;;;16.21;72.38;102521.69;5009444;28;104033;-53
2022/10/28 09:59:33;;;;;;;68.68;64.95;;;;;;;16.22;72.18;102526.06;5010938;28;102485;-53
2022/10/28 10:02:02;;;;;;;57.28;54.22;;;;;;;16.21;72.58;102518.94;5006652;28;101892;-53
2022/10/28 10:04:31;;;;;;;60.08;56.88;;;;;;;16.20;72.15;102518.09;5012670;28;104094;-53
2022/10/28 10:07:02;;;;;;;61.63;58.35;;;;;;;16.18;72.08;102512.03;4999277;28;104086;-53
2022/10/28 10:09:31;;;;;;;65.63;62.20;;;;;;;16.18;71.99;102505.72;5011922;28;102158;-54
2022/10/28 10:12:01;;;;;;;58.47;55.30;;;;;;;16.19;72.58;102512.84;5012085;28;102348;-53
2022/10/28 10:14:33;;;;;;;62.95;59.72;;;;;;;16.17;72.58;102501.31;5015744;28;102186;-53
2022/10/28 10:17:04;;;;;;;62.70;59.35;;;;;;;16.18;72.07;102508.47;5014349;28;104097;-53
2022/10/28 10:19:56;;;;;;;59.58;56.42;;;;;;;16.18;71.94;102500.22;5011751;28;102109;-54
2022/10/28 10:22:29;;;;;;;62.78;59.50;;;;;;;16.18;72.41;102502.97;4996363;28;102540;-53
2022/10/28 10:24:56;;;;;;;61.08;57.83;;;;;;;16.18;72.20;102502.97;5015192;28;102156;-54
2022/10/28 10:27:25;;;;;;;62.90;59.55;;;;;;;16.15;72.45;102490.59;4998244;28;104009;-54
2022/10/28 10:29:54;;;;;;;66.25;62.75;;;;;;;16.15;72.03;102498.00;5008856;28;102189;-53
2022/10/28 10:32:25;;;;;;;55.30;52.23;;;;;;;16.13;72.54;102495.53;5012801;28;101939;-53
2022/10/28 10:34:58;;;;;;;60.80;57.65;;;;;;;16.13;72.13;102489.22;5014732;28;102167;-53
2022/10/28 10:37:26;;;;;;;69.50;65.90;;;;;;;16.12;72.55;102493.03;5007206;28;104148;-53
2022/10/28 10:40:17;;;;;;;63.65;60.28;;;;;;;16.13;72.24;102483.72;5017542;28;102214;-53
2022/10/28 10:42:44;;;;;;;61.70;58.42;;;;;;;16.13;72.37;102489.22;5005861;28;103683;-53
2022/10/28 10:45:22;;;;;;;63.05;59.70;;;;;;;16.13;71.89;102483.72;5024363;27;102242;-54
2022/10/28 10:48:06;;;;;;;59.58;56.38;;;;;;;16.12;72.56;102476.56;5019865;28;104085;-54
2022/10/28 10:50:33;;;;;;;62.38;58.90;;;;;;;16.13;71.77;102478.22;5027259;28;102508;-53
2022/10/28 10:53:00;;;;;;;62.65;59.38;;;;;;;16.10;72.32;102474.91;5029973;27;102411;-53
2022/10/28 10:55:32;;;;;;;58.92;55.85;;;;;;;16.08;71.84;102471.63;5025165;27;102423;-53
2022/10/28 10:58:00;;;;;;;57.35;54.28;;;;;;;16.09;72.13;102480.69;5021125;27;103471;-54
2022/10/28 11:00:31;;;;;;;65.15;61.75;;;;;;;16.08;71.98;102477.13;5027586;27;102272;-53
2022/10/28 11:03:00;;;;;;;56.42;53.53;;;;;;;16.07;72.34;102475.44;5034507;27;102318;-53
2022/10/28 11:05:27;;;;;;;65.07;61.63;;;;;;;16.07;72.21;102474.63;5034475;27;102434;-54
2022/10/28 11:07:55;;;;;;;63.55;60.22;;;;;;;16.07;72.25;102472.69;5028399;27;103884;-54
2022/10/28 11:10:25;;;;;;;63.88;60.50;;;;;;;16.06;72.08;102462.81;5025600;28;102213;-53
2022/10/28 11:12:58;;;;;;;59.40;56.22;;;;;;;16.08;71.64;102463.38;5031768;27;102101;-53
2022/10/28 11:15:28;;;;;;;59.05;55.95;;;;;;;16.08;71.81;102455.16;5034784;27;102199;-54